createdAt,value
2022-09-25T00:00:09.691Z,14.63000011
2022-09-25T00:01:08.852Z,14.81999969
2022-09-25T00:02:11.767Z,14.88000011
2022-09-25T00:03:11.430Z,14.84000015
2022-09-25T00:04:05.951Z,14.77999973
2022-09-25T00:05:08.922Z,14.69999981
2022-09-25T00:06:06.333Z,14.65999985
2022-09-25T00:07:03.664Z,14.63000011
2022-09-25T00:08:04.675Z,14.60999966
2022-09-25T00:09:01.873Z,14.57999992
2022-09-25T00:10:04.868Z,14.56000042
2022-09-25T00:11:07.444Z,14.52999973
2022-09-25T00:12:04.895Z,14.47000027
2022-09-25T00:13:04.921Z,14.44999981
2022-09-25T00:15:01.041Z,14.38000011
2022-09-25T00:15:52.877Z,14.38000011
2022-09-25T00:16:55.131Z,14.36999989
2022-09-25T00:17:47.888Z,14.34000015
2022-09-25T00:18:47.861Z,14.34000015
2022-09-25T00:19:43.240Z,14.28999996
2022-09-25T00:20:44.322Z,14.26000023
2022-09-25T00:21:38.863Z,14.22999954
2022-09-25T00:22:39.446Z,14.21000004
2022-09-25T00:23:36.363Z,14.22999954
2022-09-25T00:24:35.949Z,14.21000004
2022-09-25T00:25:38.866Z,14.19999981
2022-09-25T00:26:48.673Z,14.17000008
2022-09-25T00:27:47.390Z,14.17000008
2022-09-25T00:29:46.266Z,14.19999981
2022-09-25T00:30:39.984Z,14.18999958
2022-09-25T00:31:41.039Z,14.18000031
2022-09-25T00:33:29.640Z,14.15999985
2022-09-25T00:34:54.841Z,14.26000023
2022-09-25T00:35:56.194Z,14.28999996
2022-09-25T00:36:58.977Z,14.18000031
2022-09-25T00:37:59.475Z,14.15999985
2022-09-25T00:38:55.060Z,14.14000034
2022-09-25T00:39:56.281Z,14.11999989
2022-09-25T00:40:51.514Z,14.10000038
2022-09-25T00:41:51.508Z,14.09000015
2022-09-25T00:42:47.177Z,14.05000019
2022-09-25T00:44:42.362Z,14.02999973
2022-09-25T00:45:44.609Z,14.01000023
2022-09-25T00:46:42.800Z,13.98999977
2022-09-25T00:47:46.075Z,13.97999954
2022-09-25T00:48:38.765Z,14.01000023
2022-09-25T00:49:41.757Z,14.02999973
2022-09-25T00:50:37.255Z,14.09000015
2022-09-25T00:51:42.388Z,14.09000015
2022-09-25T00:52:39.400Z,14.09000015
2022-09-25T00:53:41.761Z,14.10000038
2022-09-25T00:54:36.039Z,14.02999973
2022-09-25T00:55:37.599Z,14.01000023
2022-09-25T00:56:33.006Z,13.93999958
2022-09-25T00:57:38.348Z,13.93999958
2022-09-25T00:59:43.030Z,13.92000008
2022-09-25T01:00:37.232Z,13.92000008
2022-09-25T01:01:37.571Z,13.90999985
2022-09-25T01:02:36.125Z,13.89999962
2022-09-25T01:04:37.283Z,13.89000034
2022-09-25T01:05:44.228Z,13.89999962
2022-09-25T01:06:38.179Z,13.86999989
2022-09-25T01:07:40.720Z,13.85999966
2022-09-25T01:09:41.057Z,13.88000011
2022-09-25T01:10:35.647Z,13.85999966
2022-09-25T01:11:38.228Z,13.85999966
2022-09-25T01:12:33.480Z,13.85999966
2022-09-25T01:13:39.221Z,13.86999989
2022-09-25T01:14:38.597Z,13.85000038
2022-09-25T01:15:39.218Z,13.88000011
2022-09-25T01:17:03.481Z,13.86999989
2022-09-25T01:17:44.436Z,13.85999966
2022-09-25T01:18:43.376Z,13.86999989
2022-09-25T01:19:46.459Z,13.85000038
2022-09-25T01:20:48.254Z,13.85000038
2022-09-25T01:21:49.535Z,13.82999992
2022-09-25T01:22:48.089Z,13.81999969
2022-09-25T01:23:52.795Z,13.85000038
2022-09-25T01:24:54.880Z,13.84000015
2022-09-25T01:25:56.915Z,13.81000042
2022-09-25T01:27:02.960Z,13.77999973
2022-09-25T01:28:00.908Z,13.77999973
2022-09-25T01:29:04.616Z,13.80000019
2022-09-25T01:29:57.338Z,13.80000019
2022-09-25T01:30:57.065Z,13.81000042
2022-09-25T01:31:56.123Z,13.78999996
2022-09-25T01:32:57.546Z,13.80000019
2022-09-25T01:33:59.000Z,13.81000042
2022-09-25T01:34:57.421Z,13.81000042
2022-09-25T01:35:57.116Z,13.77000046
2022-09-25T01:36:54.576Z,13.77000046
2022-09-25T01:37:59.027Z,13.76000023
2022-09-25T01:38:53.258Z,13.75
2022-09-25T01:39:57.858Z,13.76000023
2022-09-25T01:40:54.485Z,13.75
2022-09-25T01:42:05.022Z,13.77000046
2022-09-25T01:43:03.528Z,13.78999996
2022-09-25T01:44:59.119Z,13.75
2022-09-25T01:46:01.459Z,13.77000046
2022-09-25T01:47:00.660Z,13.77000046
2022-09-25T01:48:05.396Z,13.72999954
2022-09-25T01:49:07.367Z,13.76000023
2022-09-25T01:50:20.097Z,13.73999977
2022-09-25T01:51:13.502Z,13.72999954
2022-09-25T01:52:16.727Z,13.75
2022-09-25T01:54:13.717Z,13.84000015
2022-09-25T01:54:47.320Z,13.92000008
2022-09-25T01:55:44.994Z,14
2022-09-25T01:56:45.983Z,14.02000046
2022-09-25T01:57:45.072Z,14.02000046
2022-09-25T01:59:44.011Z,13.97999954
2022-09-25T02:00:40.941Z,13.92000008
2022-09-25T02:01:41.412Z,13.92000008
2022-09-25T02:02:41.880Z,13.94999981
2022-09-25T02:04:35.443Z,13.94999981
2022-09-25T02:05:35.325Z,13.89999962
2022-09-25T02:06:30.884Z,13.89000034
2022-09-25T02:07:30.791Z,13.90999985
2022-09-25T02:08:32.618Z,13.96000004
2022-09-25T02:09:31.691Z,13.93999958
2022-09-25T02:10:27.954Z,13.93999958
2022-09-25T02:11:28.302Z,13.93000031
2022-09-25T02:12:23.020Z,13.90999985
2022-09-25T02:13:23.199Z,13.92000008
2022-09-25T02:15:20.280Z,13.88000011
2022-09-25T02:16:16.178Z,13.84000015
2022-09-25T02:17:16.421Z,13.78999996
2022-09-25T02:18:19.119Z,13.77000046
2022-09-25T02:19:18.181Z,13.75
2022-09-25T02:20:16.144Z,13.72999954
2022-09-25T02:21:15.920Z,13.72000027
2022-09-25T02:22:10.497Z,13.64000034
2022-09-25T02:23:16.579Z,13.64999962
2022-09-25T02:24:09.015Z,13.64999962
2022-09-25T02:25:07.866Z,13.63000011
2022-09-25T02:26:04.214Z,13.61999989
2022-09-25T02:27:03.683Z,13.61999989
2022-09-25T02:27:57.981Z,13.63000011
2022-09-25T02:29:02.171Z,13.64000034
2022-09-25T02:29:54.182Z,13.64999962
2022-09-25T02:30:54.166Z,13.64999962
2022-09-25T02:31:49.516Z,13.60999966
2022-09-25T02:32:48.986Z,13.57999992
2022-09-25T02:33:53.622Z,13.60000038
2022-09-25T02:34:52.518Z,13.60000038
2022-09-25T02:35:50.610Z,13.57999992
2022-09-25T02:36:58.960Z,13.56999969
2022-09-25T02:37:59.712Z,13.55000019
2022-09-25T02:38:58.390Z,13.56000042
2022-09-25T02:40:01.237Z,13.56000042
2022-09-25T02:40:53.941Z,13.55000019
2022-09-25T02:41:57.509Z,13.56000042
2022-09-25T02:42:50.280Z,13.59000015
2022-09-25T02:44:59.862Z,13.60999966
2022-09-25T02:47:06.458Z,13.68999958
2022-09-25T02:47:28.078Z,13.77000046
2022-09-25T02:49:34.412Z,13.93000031
2022-09-25T02:50:32.466Z,13.93000031
2022-09-25T02:51:32.098Z,13.89999962
2022-09-25T02:52:28.536Z,13.88000011
2022-09-25T02:54:24.499Z,13.89000034
2022-09-25T02:55:25.537Z,13.85000038
2022-09-25T02:56:21.744Z,13.80000019
2022-09-25T02:57:27.198Z,13.77999973
2022-09-25T02:59:24.556Z,13.76000023
2022-09-25T03:00:21.875Z,13.71000004
2022-09-25T03:01:23.212Z,13.69999981
2022-09-25T03:02:18.991Z,13.68999958
2022-09-25T03:03:26.103Z,13.69999981
2022-09-25T03:05:17.810Z,13.65999985
2022-09-25T03:06:16.887Z,13.64000034
2022-09-25T03:07:21.435Z,13.61999989
2022-09-25T03:08:18.542Z,13.63000011
2022-09-25T03:10:17.896Z,13.57999992
2022-09-25T03:11:18.390Z,13.57999992
2022-09-25T03:12:20.770Z,13.56000042
2022-09-25T03:13:16.016Z,13.56000042
2022-09-25T03:15:13.013Z,13.52999973
2022-09-25T03:16:12.959Z,13.47999954
2022-09-25T03:17:09.618Z,13.5
2022-09-25T03:18:09.625Z,13.46000004
2022-09-25T03:20:09.424Z,13.35999966
2022-09-25T03:21:04.140Z,13.32999992
2022-09-25T03:22:04.808Z,13.35000038
2022-09-25T03:22:59.793Z,13.35999966
2022-09-25T03:24:55.238Z,13.31999969
2022-09-25T03:26:00.204Z,13.31999969
2022-09-25T03:26:54.088Z,13.31999969
2022-09-25T03:27:54.020Z,13.34000015
2022-09-25T03:28:48.413Z,13.35999966
2022-09-25T03:30:33.679Z,13.43999958
2022-09-25T03:31:14.312Z,13.5
2022-09-25T03:32:12.357Z,13.51000023
2022-09-25T03:33:13.841Z,13.51000023
2022-09-25T03:34:08.314Z,13.51000023
2022-09-25T03:35:09.181Z,13.48999977
2022-09-25T03:36:06.387Z,13.47999954
2022-09-25T03:37:07.956Z,13.47000027
2022-09-25T03:38:03.208Z,13.43999958
2022-09-25T03:39:16.288Z,13.43000031
2022-09-25T03:40:14.469Z,13.39999962
2022-09-25T03:41:18.015Z,13.35000038
2022-09-25T03:42:10.983Z,13.35000038
2022-09-25T03:45:09.141Z,13.35000038
2022-09-25T03:46:04.452Z,13.35999966
2022-09-25T03:47:12.214Z,13.32999992
2022-09-25T03:48:05.052Z,13.34000015
2022-09-25T03:49:05.779Z,13.36999989
2022-09-25T03:50:01.319Z,13.35999966
2022-09-25T03:51:00.954Z,13.35000038
2022-09-25T03:52:00.246Z,13.36999989
2022-09-25T03:53:03.649Z,13.36999989
2022-09-25T03:55:01.252Z,13.39000034
2022-09-25T03:55:56.229Z,13.38000011
2022-09-25T03:56:57.587Z,13.36999989
2022-09-25T03:57:51.925Z,13.36999989
2022-09-25T03:59:51.547Z,13.35999966
2022-09-25T04:00:49.736Z,13.35999966
2022-09-25T04:01:54.245Z,13.35999966
2022-09-25T04:02:46.294Z,13.35999966
2022-09-25T04:03:48.715Z,13.39999962
2022-09-25T04:04:42.686Z,13.39999962
2022-09-25T04:05:46.203Z,13.40999985
2022-09-25T04:07:34.254Z,13.48999977
2022-09-25T04:08:15.880Z,13.56999969
2022-09-25T04:09:13.369Z,13.60000038
2022-09-25T04:10:13.858Z,13.57999992
2022-09-25T04:11:09.720Z,13.53999996
2022-09-25T04:12:09.378Z,13.51000023
2022-09-25T04:13:05.883Z,13.48999977
2022-09-25T04:15:01.643Z,13.46000004
2022-09-25T04:16:01.352Z,13.42000008
2022-09-25T04:17:00.867Z,13.43999958
2022-09-25T04:17:55.971Z,13.47999954
2022-09-25T04:18:59.989Z,13.48999977
2022-09-25T04:19:58.964Z,13.46000004
2022-09-25T04:21:02.514Z,13.44999981
2022-09-25T04:21:55.122Z,13.43999958
2022-09-25T04:22:54.599Z,13.42000008
2022-09-25T04:24:51.838Z,13.42000008
2022-09-25T04:25:48.835Z,13.38000011
2022-09-25T04:26:51.781Z,13.38000011
2022-09-25T04:27:46.020Z,13.35000038
2022-09-25T04:28:47.672Z,13.38000011
2022-09-25T04:29:47.968Z,13.35999966
2022-09-25T04:30:49.651Z,13.35000038
2022-09-25T04:31:44.275Z,13.32999992
2022-09-25T04:32:46.531Z,13.31999969
2022-09-25T04:33:44.217Z,13.34000015
2022-09-25T04:34:46.562Z,13.32999992
2022-09-25T04:35:40.023Z,13.31999969
2022-09-25T04:36:39.498Z,13.31000042
2022-09-25T04:37:40.234Z,13.31999969
2022-09-25T04:42:02.628Z,13.61999989
2022-09-25T04:42:24.914Z,13.64999962
2022-09-25T04:43:22.444Z,13.77000046
2022-09-25T04:45:22.297Z,13.77000046
2022-09-25T04:46:21.871Z,13.72000027
2022-09-25T04:46:22.958Z,13.72000027
2022-09-25T04:47:21.694Z,13.67000008
2022-09-25T04:48:19.625Z,13.64000034
2022-09-25T04:50:15.686Z,13.55000019
2022-09-25T04:51:15.664Z,13.48999977
2022-09-25T04:52:10.859Z,13.43999958
2022-09-25T04:53:07.830Z,13.42000008
2022-09-25T04:55:05.501Z,13.35000038
2022-09-25T04:56:06.054Z,13.31999969
2022-09-25T04:57:01.634Z,13.31000042
2022-09-25T04:58:07.522Z,13.27999973
2022-09-25T04:59:59.227Z,13.27999973
2022-09-25T05:00:59.983Z,13.26000023
2022-09-25T05:01:55.520Z,13.25
2022-09-25T05:02:55.556Z,13.22999954
2022-09-25T05:04:50.003Z,13.22999954
2022-09-25T05:05:50.648Z,13.18000031
2022-09-25T05:06:42.689Z,13.18000031
2022-09-25T05:07:42.835Z,13.15999985
2022-09-25T05:09:37.456Z,13.17000008
2022-09-25T05:10:40.971Z,13.15999985
2022-09-25T05:11:32.647Z,13.14999962
2022-09-25T05:12:34.292Z,13.14000034
2022-09-25T05:15:15.692Z,13.17000008
2022-09-25T05:15:37.577Z,13.19999981
2022-09-25T05:16:36.128Z,13.30000019
2022-09-25T05:17:11.431Z,13.32999992
2022-09-25T05:18:11.982Z,13.35000038
2022-09-25T05:20:07.475Z,13.31000042
2022-09-25T05:21:10.742Z,13.27000046
2022-09-25T05:22:03.591Z,13.26000023
2022-09-25T05:23:02.287Z,13.25
2022-09-25T05:24:03.929Z,13.27999973
2022-09-25T05:25:02.041Z,13.27000046
2022-09-25T05:26:02.192Z,13.23999977
2022-09-25T05:26:57.084Z,13.22999954
2022-09-25T05:27:58.975Z,13.18999958
2022-09-25T05:30:03.936Z,13.14999962
2022-09-25T05:31:02.141Z,13.14999962
2022-09-25T05:32:05.465Z,13.11999989
2022-09-25T05:33:02.114Z,13.11999989
2022-09-25T05:34:06.820Z,13.11999989
2022-09-25T05:35:04.585Z,13.10999966
2022-09-25T05:36:04.252Z,13.10000038
2022-09-25T05:36:59.697Z,13.10000038
2022-09-25T05:38:00.146Z,13.09000015
2022-09-25T05:38:58.030Z,13.10999966
2022-09-25T05:39:59.787Z,13.07999992
2022-09-25T05:40:55.521Z,13.06999969
2022-09-25T05:41:58.383Z,13.06999969
2022-09-25T05:42:53.954Z,13.07999992
2022-09-25T05:44:49.288Z,13.11999989
2022-09-25T05:45:47.203Z,13.11999989
2022-09-25T05:46:48.694Z,13.10999966
2022-09-25T05:47:44.132Z,13.10999966
2022-09-25T05:49:46.786Z,13.19999981
2022-09-25T05:50:49.282Z,13.18999958
2022-09-25T05:51:42.519Z,13.18000031
2022-09-25T05:52:46.072Z,13.18000031
2022-09-25T05:54:43.446Z,13.19999981
2022-09-25T05:55:46.971Z,13.26000023
2022-09-25T05:56:44.467Z,13.30000019
2022-09-25T05:58:31.018Z,13.28999996
2022-09-25T06:00:12.041Z,13.32999992
2022-09-25T06:01:15.976Z,13.31000042
2022-09-25T06:02:13.038Z,13.28999996
2022-09-25T06:03:15.653Z,13.26000023
2022-09-25T06:04:12.029Z,13.23999977
2022-09-25T06:05:15.585Z,13.21000004
2022-09-25T06:06:10.995Z,13.19999981
2022-09-25T06:07:16.228Z,13.14999962
2022-09-25T06:08:12.529Z,13.13000011
2022-09-25T06:10:11.588Z,13.09000015
2022-09-25T06:11:16.284Z,13.05000019
2022-09-25T06:12:10.628Z,13.03999996
2022-09-25T06:13:13.517Z,13.03999996
2022-09-25T06:14:08.636Z,13.06000042
2022-09-25T06:15:11.524Z,13.06999969
2022-09-25T06:16:05.979Z,13.06000042
2022-09-25T06:17:09.140Z,13.06999969
2022-09-25T06:18:02.866Z,13.06000042
2022-09-25T06:20:02.335Z,13.05000019
2022-09-25T06:21:06.188Z,13.06000042
2022-09-25T06:22:01.864Z,13.06000042
2022-09-25T06:23:01.340Z,13.06000042
2022-09-25T06:25:00.152Z,13.01000023
2022-09-25T06:26:05.724Z,13.01000023
2022-09-25T06:27:01.015Z,13
2022-09-25T06:27:59.868Z,13.03999996
2022-09-25T06:29:59.095Z,13.06000042
2022-09-25T06:31:01.052Z,13.06999969
2022-09-25T06:31:57.609Z,13.06999969
2022-09-25T06:33:03.409Z,13.06000042
2022-09-25T06:35:01.381Z,13.06999969
2022-09-25T06:36:01.210Z,13.06999969
2022-09-25T06:36:59.088Z,13.07999992
2022-09-25T06:38:00.631Z,13.09000015
2022-09-25T06:38:57.193Z,13.10999966
2022-09-25T06:40:01.818Z,13.09000015
2022-09-25T06:40:59.556Z,13.09000015
2022-09-25T06:41:57.120Z,13.10999966
2022-09-25T06:43:33.869Z,13.17000008
2022-09-25T06:44:16.949Z,13.22999954
2022-09-25T06:45:19.563Z,13.26000023
2022-09-25T06:46:14.393Z,13.22999954
2022-09-25T06:47:18.522Z,13.23999977
2022-09-25T06:47:22.494Z,13.23999977
2022-09-25T06:48:15.985Z,13.26000023
2022-09-25T06:50:06.661Z,13.31999969
2022-09-25T06:51:06.134Z,13.31999969
2022-09-25T06:52:01.392Z,13.27999973
2022-09-25T06:53:01.518Z,13.26000023
2022-09-25T06:53:56.911Z,13.26000023
2022-09-25T06:54:56.095Z,13.25
2022-09-25T06:55:51.345Z,13.23999977
2022-09-25T06:56:53.476Z,13.21000004
2022-09-25T06:57:46.101Z,13.22000027
2022-09-25T06:58:48.005Z,13.25
2022-09-25T06:59:44.375Z,13.21000004
2022-09-25T07:00:47.612Z,13.21000004
2022-09-25T07:01:43.364Z,13.18999958
2022-09-25T07:02:46.816Z,13.17000008
2022-09-25T07:03:41.607Z,13.18000031
2022-09-25T07:04:43.863Z,13.18999958
2022-09-25T07:05:37.442Z,13.19999981
2022-09-25T07:06:41.001Z,13.19999981
2022-09-25T07:07:37.461Z,13.22999954
2022-09-25T07:09:33.189Z,13.22999954
2022-09-25T07:10:34.619Z,13.22999954
2022-09-25T07:11:27.353Z,13.25
2022-09-25T07:12:34.978Z,13.25
2022-09-25T07:15:08.155Z,13.39000034
2022-09-25T07:16:07.818Z,13.43999958
2022-09-25T07:17:05.020Z,13.47000027
2022-09-25T07:19:09.648Z,13.51000023
2022-09-25T07:19:29.619Z,13.59000015
2022-09-25T07:20:27.654Z,13.72000027
2022-09-25T07:21:27.182Z,13.73999977
2022-09-25T07:22:22.342Z,13.68999958
2022-09-25T07:23:21.835Z,13.65999985
2022-09-25T07:25:16.384Z,13.64000034
2022-09-25T07:26:11.048Z,13.64000034
2022-09-25T07:27:11.415Z,13.64000034
2022-09-25T07:28:06.707Z,13.61999989
2022-09-25T07:30:01.203Z,13.60999966
2022-09-25T07:31:02.238Z,13.59000015
2022-09-25T07:31:57.620Z,13.57999992
2022-09-25T07:33:00.127Z,13.57999992
2022-09-25T07:34:51.450Z,13.60999966
2022-09-25T07:35:46.058Z,13.63000011
2022-09-25T07:36:46.658Z,13.63000011
2022-09-25T07:37:41.314Z,13.64000034
2022-09-25T07:39:36.133Z,13.63000011
2022-09-25T07:40:38.054Z,13.61999989
2022-09-25T07:41:30.609Z,13.63000011
2022-09-25T07:42:30.019Z,13.64999962
2022-09-25T07:43:24.783Z,13.67000008
2022-09-25T07:45:22.943Z,13.71000004
2022-09-25T07:46:19.034Z,13.75
2022-09-25T07:47:18.161Z,13.77999973
2022-09-25T07:48:12.961Z,13.80000019
2022-09-25T07:50:11.997Z,13.81999969
2022-09-25T07:50:15.497Z,13.81999969
2022-09-25T07:51:08.129Z,13.85000038
2022-09-25T07:52:31.726Z,13.89000034
2022-09-25T07:53:11.754Z,13.89000034
2022-09-25T07:55:09.647Z,13.93999958
2022-09-25T07:56:06.825Z,13.90999985
2022-09-25T07:57:05.052Z,13.93000031
2022-09-25T07:58:00.873Z,13.93999958
2022-09-25T07:59:01.388Z,13.93999958
2022-09-25T07:59:56.808Z,13.94999981
2022-09-25T08:00:57.009Z,13.94999981
2022-09-25T08:01:54.171Z,13.97999954
2022-09-25T08:02:54.025Z,13.97000027
2022-09-25T08:04:49.673Z,14
2022-09-25T08:05:45.035Z,14.01000023
2022-09-25T08:06:46.164Z,14.03999996
2022-09-25T08:07:42.324Z,14.09000015
2022-09-25T08:08:40.561Z,14.10999966
2022-09-25T08:09:40.514Z,14.14000034
2022-09-25T08:10:36.073Z,14.15999985
2022-09-25T08:11:38.217Z,14.15999985
2022-09-25T08:12:33.658Z,14.18000031
2022-09-25T08:14:29.844Z,14.21000004
2022-09-25T08:15:33.000Z,14.22000027
2022-09-25T08:16:27.288Z,14.21000004
2022-09-25T08:17:26.796Z,14.25
2022-09-25T08:18:22.385Z,14.27999973
2022-09-25T08:19:23.050Z,14.31999969
2022-09-25T08:20:19.385Z,14.30000019
2022-09-25T08:21:22.899Z,14.31999969
2022-09-25T08:22:17.397Z,14.32999992
2022-09-25T08:23:18.309Z,14.39999962
2022-09-25T08:24:15.671Z,14.47999954
2022-09-25T08:25:16.656Z,14.55000019
2022-09-25T08:26:13.132Z,14.61999989
2022-09-25T08:27:16.891Z,14.67000008
2022-09-25T08:28:13.165Z,14.72000027
2022-09-25T08:29:10.071Z,14.77000046
2022-09-25T08:30:11.331Z,14.81000042
2022-09-25T08:31:09.851Z,14.81000042
2022-09-25T08:32:06.195Z,14.81999969
2022-09-25T08:33:15.144Z,14.84000015
2022-09-25T08:33:15.948Z,14.84000015
2022-09-25T08:34:35.815Z,14.89999962
2022-09-25T08:34:36.327Z,14.89999962
2022-09-25T08:34:39.362Z,14.89999962
2022-09-25T08:35:07.973Z,15.02000046
2022-09-25T08:36:05.199Z,15.10999966
2022-09-25T08:37:07.024Z,15.17000008
2022-09-25T08:38:04.619Z,15.23999977
2022-09-25T08:39:08.286Z,15.25
2022-09-25T08:40:03.418Z,15.27000046
2022-09-25T08:41:03.207Z,15.25
2022-09-25T08:41:59.628Z,15.23999977
2022-09-25T08:43:03.749Z,15.25
2022-09-25T08:43:57.515Z,15.25
2022-09-25T08:45:19.884Z,15.27999973
2022-09-25T08:45:20.438Z,15.27999973
2022-09-25T08:46:00.885Z,15.38000011
2022-09-25T08:46:59.088Z,15.51000023
2022-09-25T08:48:01.772Z,15.64000034
2022-09-25T08:49:26.952Z,15.68999958
2022-09-25T08:50:08.067Z,15.78999996
2022-09-25T08:51:09.779Z,15.80000019
2022-09-25T08:52:06.811Z,15.81999969
2022-09-25T08:53:08.627Z,15.85999966
2022-09-25T08:54:06.614Z,15.89999962
2022-09-25T08:55:05.093Z,15.94999981
2022-09-25T08:56:07.165Z,16.04000092
2022-09-25T08:57:05.369Z,16.09000015
2022-09-25T08:58:06.592Z,16.18000031
2022-09-25T09:00:06.030Z,16.23999977
2022-09-25T09:01:03.568Z,16.29000092
2022-09-25T09:02:05.671Z,16.29999924
2022-09-25T09:03:02.014Z,16.34000015
2022-09-25T09:04:01.930Z,16.28000069
2022-09-25T09:04:57.987Z,16.22999954
2022-09-25T09:05:55.721Z,16.14999962
2022-09-25T09:07:25.177Z,16.09000015
2022-09-25T09:07:25.675Z,16.09000015
2022-09-25T09:07:26.452Z,16.09000015
2022-09-25T09:07:57.651Z,16.14999962
2022-09-25T09:09:59.579Z,16.36000061
2022-09-25T09:10:54.741Z,16.40999985
2022-09-25T09:11:54.967Z,16.45999908
2022-09-25T09:12:54.479Z,16.54999924
2022-09-25T09:14:54.402Z,16.59000015
2022-09-25T09:15:52.543Z,16.64999962
2022-09-25T09:16:53.304Z,16.61000061
2022-09-25T09:17:50.230Z,16.54999924
2022-09-25T09:19:49.875Z,16.55999947
2022-09-25T09:20:51.731Z,16.65999985
2022-09-25T09:21:49.239Z,16.72999954
2022-09-25T09:22:50.316Z,16.80999947
2022-09-25T09:24:49.861Z,16.89999962
2022-09-25T09:25:51.443Z,16.79999924
2022-09-25T09:26:55.348Z,16.81999969
2022-09-25T09:27:53.095Z,16.87000084
2022-09-25T09:29:53.957Z,16.94000053
2022-09-25T09:31:33.861Z,16.98999977
2022-09-25T09:32:14.462Z,17.09000015
2022-09-25T09:33:14.763Z,17.19000053
2022-09-25T09:34:16.426Z,17.20999908
2022-09-25T09:35:13.908Z,17.22999954
2022-09-25T09:36:16.306Z,17.30999947
2022-09-25T09:37:13.551Z,17.39999962
2022-09-25T09:38:15.309Z,17.43000031
2022-09-25T09:39:12.632Z,17.39999962
2022-09-25T09:40:14.451Z,17.31999969
2022-09-25T09:41:11.648Z,17.44000053
2022-09-25T09:42:12.383Z,17.44000053
2022-09-25T09:43:08.591Z,17.43000031
2022-09-25T09:45:08.027Z,17.40999985
2022-09-25T09:46:11.602Z,17.45000076
2022-09-25T09:47:06.713Z,17.46999931
2022-09-25T09:48:09.465Z,17.48999977
2022-09-25T09:49:03.051Z,17.45000076
2022-09-25T09:50:05.080Z,17.46999931
2022-09-25T09:51:05.359Z,17.5
2022-09-25T09:52:03.329Z,17.55999947
2022-09-25T09:53:05.621Z,17.62000084
2022-09-25T09:54:03.734Z,17.62999916
2022-09-25T09:55:04.164Z,17.71999931
2022-09-25T09:56:06.488Z,17.71999931
2022-09-25T09:57:01.749Z,17.76000023
2022-09-25T09:58:03.221Z,17.69000053
2022-09-25T10:00:04.578Z,17.62999916
2022-09-25T10:00:05.759Z,17.62999916
2022-09-25T10:01:11.126Z,17.60000038
2022-09-25T10:01:22.145Z,17.60000038
2022-09-25T10:01:29.081Z,17.60000038
2022-09-25T10:01:59.229Z,17.62999916
2022-09-25T10:02:55.607Z,17.62999916
2022-09-25T10:04:50.427Z,17.43000031
2022-09-25T10:05:51.898Z,17.38999939
2022-09-25T10:06:47.097Z,17.29999924
2022-09-25T10:07:47.526Z,17.25
2022-09-25T10:08:42.813Z,17.22999954
2022-09-25T10:09:42.956Z,17.12999916
2022-09-25T10:10:39.932Z,17.13999939
2022-09-25T10:11:41.514Z,17.18000031
2022-09-25T10:12:38.510Z,17.27000046
2022-09-25T10:14:37.298Z,17.37000084
2022-09-25T10:15:38.943Z,17.37000084
2022-09-25T10:16:36.028Z,17.39999962
2022-09-25T10:17:36.535Z,17.45000076
2022-09-25T10:18:33.787Z,17.43000031
2022-09-25T10:20:33.340Z,17.47999954
2022-09-25T10:20:53.597Z,17.51000023
2022-09-25T10:21:52.513Z,17.57999992
2022-09-25T10:22:51.738Z,17.61000061
2022-09-25T10:24:50.560Z,17.46999931
2022-09-25T10:25:46.741Z,17.47999954
2022-09-25T10:26:47.522Z,17.45999908
2022-09-25T10:27:43.939Z,17.43000031
2022-09-25T10:28:47.774Z,17.44000053
2022-09-25T10:29:41.447Z,17.48999977
2022-09-25T10:30:42.750Z,17.51000023
2022-09-25T10:31:39.059Z,17.52000046
2022-09-25T10:32:39.877Z,17.53000069
2022-09-25T10:33:36.117Z,17.54000092
2022-09-25T10:34:34.970Z,17.45000076
2022-09-25T10:35:34.875Z,17.45999908
2022-09-25T10:36:30.322Z,17.46999931
2022-09-25T10:37:33.090Z,17.45999908
2022-09-25T10:38:26.466Z,17.38999939
2022-09-25T10:39:43.714Z,17.29999924
2022-09-25T10:39:46.361Z,17.29999924
2022-09-25T10:40:23.933Z,17.22999954
2022-09-25T10:41:19.158Z,17.13999939
2022-09-25T10:42:19.257Z,17.10000038
2022-09-25T10:43:16.167Z,17.03000069
2022-09-25T10:44:18.823Z,16.95999908
2022-09-25T10:45:11.708Z,16.98999977
2022-09-25T10:46:11.913Z,17.01000023
2022-09-25T10:47:07.109Z,16.95000076
2022-09-25T10:48:07.082Z,16.95000076
2022-09-25T10:50:04.866Z,16.96999931
2022-09-25T10:50:57.522Z,16.96999931
2022-09-25T10:52:21.900Z,16.96999931
2022-09-25T10:53:02.402Z,16.96999931
2022-09-25T10:55:01.499Z,16.95000076
2022-09-25T10:55:57.207Z,16.93000031
2022-09-25T10:56:57.843Z,16.92000008
2022-09-25T10:57:53.576Z,16.88999939
2022-09-25T10:58:54.405Z,16.87000084
2022-09-25T10:59:50.213Z,16.85000038
2022-09-25T11:00:48.476Z,16.84000015
2022-09-25T11:01:49.259Z,16.82999992
2022-09-25T11:02:45.021Z,16.79999924
2022-09-25T11:03:45.740Z,16.78000069
2022-09-25T11:04:41.449Z,16.78000069
2022-09-25T11:05:44.570Z,16.76000023
2022-09-25T11:06:38.833Z,16.77000046
2022-09-25T11:07:38.682Z,16.78000069
2022-09-25T11:08:34.409Z,16.71999931
2022-09-25T11:09:35.078Z,16.75
2022-09-25T11:10:30.946Z,16.76000023
2022-09-25T11:11:31.528Z,16.70999908
2022-09-25T11:12:27.368Z,16.72999954
2022-09-25T11:13:28.169Z,16.72999954
2022-09-25T11:14:23.768Z,16.73999977
2022-09-25T11:15:26.937Z,16.73999977
2022-09-25T11:16:21.310Z,16.75
2022-09-25T11:17:20.923Z,16.77000046
2022-09-25T11:18:17.203Z,16.78000069
2022-09-25T11:19:17.364Z,16.77000046
2022-09-25T11:20:13.012Z,16.78000069
2022-09-25T11:21:16.171Z,16.79000092
2022-09-25T11:22:10.477Z,16.79999924
2022-09-25T11:23:10.256Z,16.79000092
2022-09-25T11:24:06.033Z,16.77000046
2022-09-25T11:25:06.050Z,16.78000069
2022-09-25T11:26:01.909Z,16.76000023
2022-09-25T11:27:40.082Z,16.79999924
2022-09-25T11:28:20.035Z,16.81999969
2022-09-25T11:30:17.684Z,16.82999992
2022-09-25T11:31:13.036Z,16.81999969
2022-09-25T11:32:13.061Z,16.79999924
2022-09-25T11:33:08.357Z,16.79999924
2022-09-25T11:34:08.532Z,16.79000092
2022-09-25T11:35:03.809Z,16.79000092
2022-09-25T11:36:04.069Z,16.79999924
2022-09-25T11:37:00.245Z,16.79999924
2022-09-25T11:38:03.109Z,16.79999924
2022-09-25T11:38:55.962Z,16.79999924
2022-09-25T11:39:58.826Z,16.79999924
2022-09-25T11:40:51.804Z,16.82999992
2022-09-25T11:41:52.022Z,16.85000038
2022-09-25T11:42:48.841Z,16.84000015
2022-09-25T11:43:48.972Z,16.84000015
2022-09-25T11:44:45.279Z,16.81999969